Time;durP1;ratioP1;P1;durP2;ratioP2;P2;SDS_P1;SDS_P2;PMS_P1;PMS_P2;Temp;Humidity;BMP_temperature;BMP_pressure;BME280_temperature;BME280_humidity;BME280_pressure;Samples;Min_cycle;Max_cycle;Signal;HPM_P1;HPM_P2
2023/12/04 00:01:17;;;;;;;42.08;24.88;;;1.30;99.90;;;;;;5012647;28;20042;-60
2023/12/04 00:03:42;;;;;;;40.72;24.50;;;1.20;99.90;;;;;;5023220;28;20049;-60
2023/12/04 00:06:12;;;;;;;38.35;23.52;;;1.30;99.90;;;;;;5022162;28;20044;-61
2023/12/04 00:08:38;;;;;;;44.92;25.65;;;1.20;99.90;;;;;;5020356;28;20073;-61
2023/12/04 00:11:05;;;;;;;40.90;23.90;;;1.20;99.90;;;;;;4999900;28;20337;-60
2023/12/04 00:13:31;;;;;;;47.05;26.80;;;1.20;99.90;;;;;;5022447;28;20043;-61
2023/12/04 00:15:56;;;;;;;47.58;26.73;;;1.20;99.90;;;;;;5019847;28;20038;-60
2023/12/04 00:18:22;;;;;;;49.60;27.25;;;1.20;99.90;;;;;;5019570;28;20121;-60
2023/12/04 00:20:48;;;;;;;41.00;25.38;;;1.20;99.90;;;;;;5021105;28;20029;-60
2023/12/04 00:23:14;;;;;;;43.50;24.13;;;1.20;99.90;;;;;;5004545;28;20037;-61
2023/12/04 00:25:39;;;;;;;41.53;25.40;;;1.20;99.90;;;;;;5020109;28;20427;-61
2023/12/04 00:28:05;;;;;;;43.33;25.27;;;1.20;99.90;;;;;;5020556;28;20314;-60
2023/12/04 00:30:31;;;;;;;42.53;24.40;;;1.20;99.90;;;;;;5004678;28;20033;-61
2023/12/04 00:32:56;;;;;;;44.45;25.08;;;1.20;99.90;;;;;;5016985;28;20034;-61
2023/12/04 00:35:22;;;;;;;42.67;24.45;;;1.20;99.90;;;;;;5022277;28;20038;-60
2023/12/04 00:37:48;;;;;;;44.17;24.08;;;1.20;99.90;;;;;;5021471;28;20397;-61
2023/12/04 00:40:13;;;;;;;41.53;24.25;;;1.30;99.90;;;;;;5000032;28;20049;-60
2023/12/04 00:42:39;;;;;;;43.20;25.17;;;1.20;99.90;;;;;;5018699;28;20037;-61
2023/12/04 00:45:05;;;;;;;44.53;24.70;;;1.20;99.90;;;;;;5020129;28;20128;-61
2023/12/04 00:47:31;;;;;;;41.25;25.33;;;1.20;99.90;;;;;;5021948;28;20038;-60
2023/12/04 00:49:57;;;;;;;40.30;24.10;;;1.20;99.90;;;;;;5019392;28;20119;-61
2023/12/04 00:52:23;;;;;;;39.13;23.45;;;1.30;99.90;;;;;;5021378;28;20179;-61
2023/12/04 00:54:48;;;;;;;39.67;23.67;;;1.30;99.90;;;;;;5019687;28;20037;-59
2023/12/04 00:57:14;;;;;;;38.25;22.75;;;1.20;99.90;;;;;;5000500;28;20048;-61
2023/12/04 00:59:40;;;;;;;39.95;23.92;;;1.20;99.90;;;;;;5020547;28;20202;-60
2023/12/04 01:02:07;;;;;;;34.50;21.95;;;1.20;99.90;;;;;;5019400;28;20736;-60
2023/12/04 01:04:33;;;;;;;37.35;22.60;;;1.30;99.90;;;;;;5021914;28;20374;-60
2023/12/04 01:06:58;;;;;;;39.30;22.50;;;1.30;99.90;;;;;;5020267;28;20049;-59
2023/12/04 01:09:24;;;;;;;37.25;23.30;;;1.30;99.90;;;;;;5016958;28;20041;-60
2023/12/04 01:11:54;;;;;;;41.53;23.92;;;1.30;99.90;;;;;;5003504;28;20052;-60
2023/12/04 01:14:20;;;;;;;38.13;22.60;;;1.30;99.90;;;;;;5030740;28;21427;-60
2023/12/04 01:16:46;;;;;;;37.25;23.17;;;1.30;99.90;;;;;;5020466;28;20037;-60
2023/12/04 01:19:12;;;;;;;36.90;23.48;;;1.30;99.90;;;;;;5014481;28;20060;-60
2023/12/04 01:21:38;;;;;;;37.38;22.95;;;1.30;99.90;;;;;;5016633;28;20061;-60
2023/12/04 01:24:04;;;;;;;38.00;22.35;;;1.30;99.90;;;;;;5018837;28;20041;-61
2023/12/04 01:26:32;;;;;;;35.25;22.27;;;1.30;99.90;;;;;;5022383;28;20038;-59
2023/12/04 01:28:58;;;;;;;38.42;23.17;;;1.30;99.90;;;;;;4997638;28;20455;-61
2023/12/04 01:31:24;;;;;;;41.42;23.17;;;1.30;99.90;;;;;;5017339;28;20037;-60
2023/12/04 01:33:49;;;;;;;44.38;24.65;;;1.30;99.90;;;;;;5018793;28;20041;-60
2023/12/04 01:36:15;;;;;;;38.28;23.08;;;1.30;99.90;;;;;;5001981;28;20043;-61
2023/12/04 01:38:41;;;;;;;40.13;24.42;;;1.30;99.90;;;;;;5021816;28;21377;-61
2023/12/04 01:41:06;;;;;;;39.75;23.83;;;1.30;99.90;;;;;;5003180;28;20053;-60
2023/12/04 01:43:32;;;;;;;37.83;21.80;;;1.30;99.90;;;;;;5028913;28;20120;-60
2023/12/04 01:46:00;;;;;;;36.30;23.38;;;1.30;99.90;;;;;;5019248;28;20126;-61
2023/12/04 01:48:26;;;;;;;39.28;23.30;;;1.30;99.90;;;;;;5020749;28;20312;-60
2023/12/04 01:50:52;;;;;;;39.15;23.33;;;1.30;99.90;;;;;;5016432;28;20045;-61
2023/12/04 01:53:19;;;;;;;36.17;23.27;;;1.30;99.90;;;;;;4998215;28;20523;-60
2023/12/04 01:55:46;;;;;;;39.75;23.65;;;1.30;99.90;;;;;;5018651;28;20041;-60
2023/12/04 01:58:12;;;;;;;40.15;24.48;;;1.30;99.90;;;;;;5015695;28;20061;-60
2023/12/04 02:00:38;;;;;;;40.55;24.33;;;1.40;99.90;;;;;;5019900;28;20041;-60
2023/12/04 02:03:04;;;;;;;38.80;23.65;;;1.40;99.90;;;;;;5016586;28;20344;-60
2023/12/04 02:05:31;;;;;;;41.50;23.35;;;1.40;99.90;;;;;;5001021;28;20076;-61
2023/12/04 02:07:57;;;;;;;42.90;23.40;;;1.30;99.90;;;;;;5031311;28;20037;-61
2023/12/04 02:10:23;;;;;;;42.10;24.15;;;1.40;99.90;;;;;;5015998;28;20512;-60
2023/12/04 02:12:50;;;;;;;43.55;24.85;;;1.40;99.90;;;;;;5016982;28;20060;-61
2023/12/04 02:18:56;;;;;;;39.78;23.10;;;1.40;99.90;;;;;;5021629;28;20099;-61
2023/12/04 02:21:22;;;;;;;39.35;24.40;;;1.40;99.90;;;;;;5016203;28;20496;-60
2023/12/04 02:23:51;;;;;;;40.80;23.60;;;1.40;99.90;;;;;;5001234;28;20030;-60
2023/12/04 02:26:22;;;;;;;41.13;24.80;;;1.40;99.90;;;;;;5017644;28;20159;-60
2023/12/04 02:28:54;;;;;;;41.55;24.40;;;1.40;99.90;;;;;;5017161;28;20049;-60
2023/12/04 02:31:22;;;;;;;43.42;25.10;;;1.40;99.90;;;;;;5000144;28;20049;-60
2023/12/04 02:33:52;;;;;;;39.72;23.70;;;1.50;99.90;;;;;;5014596;28;20468;-60
2023/12/04 02:36:19;;;;;;;42.60;24.52;;;1.40;99.90;;;;;;5016801;28;20558;-60
2023/12/04 02:38:45;;;;;;;40.97;23.67;;;1.40;99.90;;;;;;5017851;28;20085;-61
2023/12/04 02:41:11;;;;;;;41.95;23.95;;;1.40;99.90;;;;;;5021823;28;20057;-59
2023/12/04 02:43:37;;;;;;;42.67;25.50;;;1.40;99.90;;;;;;5018477;28;20191;-61
2023/12/04 02:46:03;;;;;;;38.95;23.92;;;1.50;99.90;;;;;;5000244;28;20382;-61
2023/12/04 02:48:28;;;;;;;42.65;24.25;;;1.40;99.90;;;;;;5011958;28;21421;-60
2023/12/04 02:50:54;;;;;;;42.95;25.55;;;1.40;99.90;;;;;;5013491;28;20033;-61
2023/12/04 02:53:20;;;;;;;42.85;25.27;;;1.40;99.90;;;;;;5017447;28;20314;-60
2023/12/04 02:55:46;;;;;;;45.40;25.98;;;1.40;99.90;;;;;;5017450;28;20056;-61
2023/12/04 02:58:11;;;;;;;42.60;24.27;;;1.50;99.90;;;;;;5021669;28;20123;-61
2023/12/04 03:00:37;;;;;;;39.75;24.05;;;1.50;99.90;;;;;;5021701;28;20498;-61
2023/12/04 03:03:03;;;;;;;46.35;25.40;;;1.50;99.90;;;;;;5014092;28;20076;-61
2023/12/04 03:05:28;;;;;;;47.08;25.17;;;1.50;99.90;;;;;;5040569;28;20060;-61
2023/12/04 03:07:54;;;;;;;42.25;24.95;;;1.50;99.90;;;;;;5022210;28;20037;-61
2023/12/04 03:10:20;;;;;;;44.25;26.83;;;1.40;99.90;;;;;;5023865;28;20461;-60
2023/12/04 03:12:46;;;;;;;44.17;25.70;;;1.50;99.90;;;;;;5025013;28;20044;-60
2023/12/04 03:15:12;;;;;;;43.67;23.60;;;1.50;99.90;;;;;;5027178;28;20080;-61
2023/12/04 03:17:39;;;;;;;46.97;26.48;;;1.50;99.90;;;;;;5024353;28;20050;-61
2023/12/04 03:20:08;;;;;;;44.78;25.23;;;1.50;99.90;;;;;;5029170;28;20052;-60
2023/12/04 03:22:35;;;;;;;41.90;23.60;;;1.50;99.90;;;;;;5024347;28;20050;-60
2023/12/04 03:25:00;;;;;;;44.97;25.13;;;1.50;99.90;;;;;;5028011;28;20041;-61
2023/12/04 03:27:26;;;;;;;41.25;23.27;;;1.50;99.90;;;;;;5016996;28;20575;-61
2023/12/04 03:29:52;;;;;;;42.28;24.83;;;1.50;99.90;;;;;;5017602;28;21603;-61
2023/12/04 03:32:17;;;;;;;42.15;24.45;;;1.60;99.90;;;;;;5021265;28;20068;-60
2023/12/04 03:34:43;;;;;;;42.75;25.35;;;1.50;99.90;;;;;;5008308;28;20208;-61
2023/12/04 03:37:09;;;;;;;44.13;24.08;;;1.50;99.90;;;;;;5032098;28;20504;-60
2023/12/04 03:39:34;;;;;;;47.67;25.60;;;1.50;99.90;;;;;;5037677;28;20038;-61
2023/12/04 03:42:00;;;;;;;41.90;24.58;;;1.50;99.90;;;;;;5022904;28;20041;-61
2023/12/04 03:44:26;;;;;;;41.10;25.20;;;1.50;99.90;;;;;;5026043;28;20037;-61
2023/12/04 03:46:51;;;;;;;39.92;23.50;;;1.50;99.90;;;;;;5024790;28;20037;-60
2023/12/04 03:49:17;;;;;;;45.10;25.48;;;1.50;99.90;;;;;;5006567;28;20049;-61
2023/12/04 03:51:43;;;;;;;41.47;23.27;;;1.60;99.90;;;;;;5028659;28;20033;-60
2023/12/04 03:54:08;;;;;;;44.22;24.00;;;1.50;99.90;;;;;;5024270;28;20040;-61
2023/12/04 03:56:34;;;;;;;46.65;24.73;;;1.50;99.90;;;;;;5023300;28;20362;-61
2023/12/04 03:59:00;;;;;;;41.00;23.27;;;1.50;99.90;;;;;;5027532;28;20037;-60
2023/12/04 04:01:25;;;;;;;42.22;23.42;;;1.50;99.90;;;;;;5024426;28;20372;-60
2023/12/04 04:03:51;;;;;;;41.97;23.30;;;1.50;99.90;;;;;;5028674;28;20033;-60
2023/12/04 04:06:17;;;;;;;40.75;23.10;;;1.60;99.90;;;;;;5025128;28;20681;-60
2023/12/04 04:08:42;;;;;;;42.40;22.35;;;1.50;99.90;;;;;;5011117;28;20033;-61
2023/12/04 04:11:08;;;;;;;39.65;22.42;;;1.50;99.90;;;;;;5025222;28;20040;-61
2023/12/04 04:13:34;;;;;;;39.40;22.00;;;1.60;99.90;;;;;;5028735;28;20033;-61
2023/12/04 04:16:00;;;;;;;43.10;23.15;;;1.60;99.90;;;;;;5040888;28;20041;-60
2023/12/04 04:18:25;;;;;;;39.03;21.58;;;1.50;99.90;;;;;;5007847;28;21216;-61
2023/12/04 04:20:51;;;;;;;40.80;22.70;;;1.50;99.90;;;;;;5027251;28;20488;-60
2023/12/04 04:23:17;;;;;;;37.38;20.73;;;1.50;99.90;;;;;;5025903;28;20421;-61
2023/12/04 04:25:42;;;;;;;43.63;21.50;;;1.50;99.90;;;;;;5025118;28;20032;-60
2023/12/04 04:28:08;;;;;;;40.38;22.50;;;1.50;99.90;;;;;;5029577;28;20258;-60
2023/12/04 04:30:34;;;;;;;40.30;21.00;;;1.50;99.90;;;;;;5028001;28;20029;-60
2023/12/04 04:33:00;;;;;;;40.00;21.90;;;1.50;99.90;;;;;;5026832;28;20095;-60
2023/12/04 04:35:25;;;;;;;40.58;20.73;;;1.50;99.90;;;;;;5017843;28;20064;-60
2023/12/04 04:37:51;;;;;;;38.70;21.52;;;1.50;99.90;;;;;;5029572;28;20122;-61
2023/12/04 04:40:17;;;;;;;40.55;20.48;;;1.50;99.90;;;;;;5023078;28;20098;-61
2023/12/04 04:42:43;;;;;;;42.15;21.00;;;1.50;99.90;;;;;;5023966;28;20207;-60
2023/12/04 04:45:09;;;;;;;31.45;18.40;;;1.60;99.90;;;;;;5011810;28;20485;-60
2023/12/04 04:47:34;;;;;;;38.63;20.40;;;1.50;99.90;;;;;;5025000;28;20411;-61
2023/12/04 04:50:00;;;;;;;36.40;20.85;;;1.50;99.90;;;;;;5021876;28;20033;-60
2023/12/04 04:52:26;;;;;;;38.40;21.27;;;1.50;99.90;;;;;;5022440;28;20481;-60
2023/12/04 04:54:52;;;;;;;33.63;18.98;;;1.50;99.90;;;;;;5027627;28;20405;-61
2023/12/04 04:57:17;;;;;;;37.45;19.85;;;1.60;99.90;;;;;;5019490;28;20570;-60
2023/12/04 04:59:43;;;;;;;34.55;18.92;;;1.50;99.90;;;;;;5006290;28;20037;-61
2023/12/04 05:02:09;;;;;;;35.22;19.77;;;1.50;99.90;;;;;;5026741;28;20044;-61
2023/12/04 05:04:34;;;;;;;34.15;19.13;;;1.50;99.90;;;;;;5027306;28;20052;-60
2023/12/04 05:07:00;;;;;;;31.95;18.38;;;1.50;99.90;;;;;;5025103;28;20030;-59
2023/12/04 05:09:26;;;;;;;33.30;18.38;;;1.50;99.90;;;;;;5025693;28;20042;-61
2023/12/04 05:11:51;;;;;;;34.70;19.27;;;1.50;99.90;;;;;;5038010;28;20045;-60
2023/12/04 05:14:17;;;;;;;35.65;19.15;;;1.50;99.90;;;;;;5022941;28;20508;-61
2023/12/04 05:16:43;;;;;;;33.67;18.27;;;1.60;99.90;;;;;;5039314;28;20037;-61
2023/12/04 05:19:08;;;;;;;34.42;18.38;;;1.50;99.90;;;;;;4990418;28;20174;-60
2023/12/04 05:21:34;;;;;;;31.35;18.30;;;1.60;99.90;;;;;;5008398;28;20087;-61
2023/12/04 05:24:00;;;;;;;34.45;19.45;;;1.50;99.90;;;;;;5025380;28;20485;-61
2023/12/04 05:26:25;;;;;;;32.20;17.50;;;1.50;99.90;;;;;;5020618;28;20356;-60
2023/12/04 05:28:51;;;;;;;33.88;18.60;;;1.60;99.90;;;;;;5029019;28;20044;-61
2023/12/04 05:31:17;;;;;;;35.13;18.95;;;1.50;99.90;;;;;;5022908;28;20390;-60
2023/12/04 05:33:43;;;;;;;31.30;17.92;;;1.60;99.90;;;;;;5003118;28;20037;-61
2023/12/04 05:36:09;;;;;;;32.60;17.95;;;1.60;99.90;;;;;;5022842;28;20076;-61
2023/12/04 05:38:35;;;;;;;33.83;18.58;;;1.60;99.90;;;;;;5018378;28;21353;-61
2023/12/04 05:41:00;;;;;;;31.73;18.85;;;1.60;99.90;;;;;;5019934;28;20100;-60
2023/12/04 05:43:26;;;;;;;34.40;19.10;;;1.60;99.90;;;;;;5020221;28;20277;-59
2023/12/04 05:45:52;;;;;;;31.30;17.35;;;1.60;99.90;;;;;;5022723;28;20045;-61
2023/12/04 05:48:18;;;;;;;32.85;18.52;;;1.60;99.90;;;;;;5024679;28;20041;-61
2023/12/04 05:50:44;;;;;;;29.70;18.17;;;1.60;99.90;;;;;;5023858;28;20033;-61
2023/12/04 05:53:09;;;;;;;28.73;17.15;;;1.60;99.90;;;;;;5027191;28;20045;-60
2023/12/04 05:55:35;;;;;;;31.38;18.13;;;1.60;99.90;;;;;;5025583;28;20176;-61
2023/12/04 05:58:02;;;;;;;30.48;17.50;;;1.60;99.90;;;;;;5024139;28;20099;-60
2023/12/04 06:00:28;;;;;;;33.13;18.20;;;1.60;99.90;;;;;;5026207;28;20532;-60
2023/12/04 06:02:53;;;;;;;31.55;16.67;;;1.60;99.90;;;;;;5021473;28;20037;-60
2023/12/04 06:05:19;;;;;;;31.17;16.33;;;1.60;99.90;;;;;;5007641;28;20045;-61
2023/12/04 06:07:45;;;;;;;30.88;17.50;;;1.60;99.90;;;;;;5020546;28;20052;-61
2023/12/04 06:10:10;;;;;;;29.77;17.65;;;1.60;99.90;;;;;;5025138;28;20033;-60
2023/12/04 06:12:36;;;;;;;29.90;17.35;;;1.70;99.90;;;;;;5007039;28;20183;-61
2023/12/04 06:15:02;;;;;;;26.55;16.08;;;1.70;99.90;;;;;;5023932;28;20288;-61
2023/12/04 06:17:28;;;;;;;28.70;16.58;;;1.70;99.90;;;;;;5005819;28;20145;-61
2023/12/04 06:19:54;;;;;;;30.98;16.67;;;1.60;99.90;;;;;;5026373;28;20048;-60
2023/12/04 06:22:21;;;;;;;28.38;16.05;;;1.60;99.90;;;;;;5023980;28;20475;-61
2023/12/04 06:24:48;;;;;;;28.60;16.73;;;1.70;99.90;;;;;;5022176;28;20570;-60
2023/12/04 06:27:17;;;;;;;29.48;16.65;;;1.70;99.90;;;;;;5008656;28;20409;-61
2023/12/04 06:29:44;;;;;;;31.15;17.00;;;1.70;99.90;;;;;;5022822;28;20042;-61
2023/12/04 06:32:10;;;;;;;30.83;18.08;;;1.70;99.90;;;;;;5021093;28;20052;-60
2023/12/04 06:34:36;;;;;;;28.05;16.58;;;1.70;99.90;;;;;;5022276;28;20040;-61
2023/12/04 06:37:03;;;;;;;27.67;16.80;;;1.70;99.90;;;;;;5023858;28;20041;-61
2023/12/04 06:39:33;;;;;;;28.05;16.95;;;1.70;99.90;;;;;;5020875;28;20041;-61
2023/12/04 06:42:00;;;;;;;28.08;16.23;;;1.70;99.90;;;;;;5008936;28;20033;-60
2023/12/04 06:44:26;;;;;;;25.33;15.73;;;1.70;99.90;;;;;;5009693;28;20056;-60
2023/12/04 06:46:52;;;;;;;26.98;15.73;;;1.70;99.90;;;;;;5013234;28;20038;-60
2023/12/04 06:49:19;;;;;;;24.70;14.88;;;1.70;99.90;;;;;;5011028;28;20056;-61
2023/12/04 06:51:44;;;;;;;26.42;16.17;;;1.70;99.90;;;;;;5027645;28;20113;-60
2023/12/04 06:54:11;;;;;;;24.98;15.55;;;1.70;99.90;;;;;;5025890;28;20235;-59
2023/12/04 06:56:38;;;;;;;27.25;16.27;;;1.70;99.90;;;;;;5027419;28;20452;-60
2023/12/04 06:59:04;;;;;;;24.95;15.45;;;1.70;99.90;;;;;;5023658;28;20048;-60
2023/12/04 07:01:29;;;;;;;26.67;14.98;;;1.70;99.90;;;;;;5023246;28;20041;-60
2023/12/04 07:07:36;;;;;;;25.95;15.27;;;1.70;99.90;;;;;;5022607;28;20104;-60
2023/12/04 07:10:05;;;;;;;27.73;15.50;;;1.70;99.90;;;;;;5040259;28;20310;-60
2023/12/04 07:12:30;;;;;;;26.42;14.57;;;1.70;99.90;;;;;;5023225;28;20092;-59
2023/12/04 07:14:56;;;;;;;24.20;14.38;;;1.70;99.90;;;;;;5023601;28;20034;-60
2023/12/04 07:17:23;;;;;;;26.08;14.95;;;1.70;99.90;;;;;;5023222;28;20034;-60
2023/12/04 07:19:49;;;;;;;23.23;14.55;;;1.70;99.90;;;;;;5026377;28;20508;-59
2023/12/04 07:22:14;;;;;;;26.13;15.52;;;1.70;99.90;;;;;;5007776;28;20041;-60
2023/12/04 07:24:40;;;;;;;25.42;14.77;;;1.70;99.90;;;;;;5007631;28;20434;-61
2023/12/04 07:27:06;;;;;;;23.88;14.27;;;1.70;99.90;;;;;;5025705;28;20459;-60
2023/12/04 07:29:32;;;;;;;22.25;13.63;;;1.60;99.90;;;;;;5025187;28;20072;-60
2023/12/04 07:32:00;;;;;;;25.25;14.10;;;1.70;99.90;;;;;;5023728;28;20484;-60
2023/12/04 07:34:26;;;;;;;24.55;14.35;;;1.60;99.90;;;;;;5026075;28;20049;-60
2023/12/04 07:36:52;;;;;;;24.10;14.05;;;1.60;99.90;;;;;;5026107;28;20072;-60
2023/12/04 07:39:17;;;;;;;20.90;12.80;;;1.60;99.90;;;;;;5007505;28;20356;-61
2023/12/04 07:41:43;;;;;;;20.65;12.65;;;1.60;99.90;;;;;;5024750;28;20616;-61
2023/12/04 07:44:09;;;;;;;19.48;12.40;;;1.70;99.90;;;;;;5021166;28;20132;-61
2023/12/04 07:46:35;;;;;;;20.63;13.40;;;1.70;99.90;;;;;;5005839;28;20659;-61
2023/12/04 07:49:00;;;;;;;22.67;12.93;;;1.70;99.90;;;;;;5019650;28;20083;-61
2023/12/04 07:51:26;;;;;;;23.10;13.75;;;1.70;99.90;;;;;;5026522;28;20364;-60
2023/12/04 07:53:52;;;;;;;22.10;11.40;;;1.70;99.90;;;;;;5023295;28;20353;-60
2023/12/04 07:56:17;;;;;;;18.88;11.35;;;1.70;99.90;;;;;;5018857;28;20052;-60
2023/12/04 07:58:43;;;;;;;23.15;13.52;;;1.70;99.90;;;;;;5020895;28;20085;-60
2023/12/04 08:01:09;;;;;;;21.08;12.60;;;1.70;99.90;;;;;;5024766;28;20049;-60
2023/12/04 08:03:34;;;;;;;18.65;11.80;;;1.70;99.90;;;;;;5026336;28;20484;-60
2023/12/04 08:06:00;;;;;;;20.45;12.10;;;1.70;99.90;;;;;;5024680;28;20542;-60
2023/12/04 08:08:26;;;;;;;18.20;10.75;;;1.80;99.90;;;;;;4991696;28;20068;-58
2023/12/04 08:10:52;;;;;;;21.15;12.77;;;1.70;99.90;;;;;;5027169;28;20092;-60
2023/12/04 08:13:17;;;;;;;16.27;10.50;;;1.80;99.90;;;;;;5026777;28;20490;-60
2023/12/04 08:15:44;;;;;;;18.92;11.45;;;1.70;99.90;;;;;;5030365;28;20030;-60
2023/12/04 08:18:09;;;;;;;19.65;11.82;;;1.80;99.90;;;;;;5025307;28;20037;-60
2023/12/04 08:20:35;;;;;;;17.02;10.60;;;1.80;99.90;;;;;;5019808;28;20504;-60
2023/12/04 08:23:01;;;;;;;18.13;10.90;;;1.80;99.90;;;;;;5025875;28;20048;-60
2023/12/04 08:25:27;;;;;;;18.83;10.45;;;1.90;99.90;;;;;;5025307;28;20083;-60
2023/12/04 08:27:53;;;;;;;19.55;11.32;;;1.90;99.90;;;;;;5026107;28;20049;-60
2023/12/04 08:30:19;;;;;;;18.52;11.07;;;1.80;99.90;;;;;;5040965;28;20463;-60
2023/12/04 08:32:44;;;;;;;15.90;9.93;;;1.80;99.90;;;;;;5041993;28;20029;-60
2023/12/04 08:35:10;;;;;;;16.42;9.68;;;1.90;99.90;;;;;;5027758;28;20107;-60
2023/12/04 08:37:36;;;;;;;15.48;10.40;;;1.80;99.90;;;;;;5011122;28;20085;-59
2023/12/04 08:40:02;;;;;;;17.75;9.75;;;1.80;99.90;;;;;;5026744;28;20512;-60
2023/12/04 08:42:29;;;;;;;17.05;10.20;;;1.90;99.90;;;;;;5026663;28;20042;-60
2023/12/04 08:44:55;;;;;;;16.88;10.25;;;1.90;99.90;;;;;;5023920;28;20199;-61
2023/12/04 08:47:21;;;;;;;16.40;10.23;;;1.90;99.90;;;;;;5007216;28;20048;-60
2023/12/04 08:49:47;;;;;;;14.60;9.48;;;1.90;99.90;;;;;;5025909;28;20096;-61
2023/12/04 08:52:12;;;;;;;15.77;9.73;;;1.90;99.90;;;;;;5023706;28;20056;-61
2023/12/04 08:54:41;;;;;;;17.13;9.93;;;2.00;99.90;;;;;;5028605;28;20060;-61
2023/12/04 08:57:08;;;;;;;18.33;9.38;;;2.00;99.90;;;;;;5026482;28;20462;-60
2023/12/04 08:59:34;;;;;;;15.23;9.50;;;1.90;99.90;;;;;;5025794;28;20652;-60
2023/12/04 09:02:03;;;;;;;13.13;8.43;;;2.00;99.90;;;;;;5021871;28;20065;-60
2023/12/04 09:04:32;;;;;;;13.38;9.40;;;2.00;99.90;;;;;;5027184;28;20125;-60
2023/12/04 09:06:59;;;;;;;13.48;8.57;;;2.10;99.90;;;;;;5024759;28;20042;-60
2023/12/04 09:09:25;;;;;;;14.75;9.05;;;2.10;99.90;;;;;;5025734;28;20110;-61
2023/12/04 09:11:51;;;;;;;15.02;9.73;;;2.10;99.90;;;;;;5024872;28;20041;-60
2023/12/04 09:14:17;;;;;;;14.50;8.90;;;2.00;99.90;;;;;;5030158;28;20049;-60
2023/12/04 09:16:43;;;;;;;14.18;9.02;;;2.00;99.90;;;;;;5026833;28;20033;-60
2023/12/04 09:19:08;;;;;;;13.10;8.48;;;2.10;99.90;;;;;;5028499;28;20125;-61
2023/12/04 09:21:35;;;;;;;13.27;8.50;;;2.10;99.90;;;;;;5023946;28;20521;-60
2023/12/04 09:24:01;;;;;;;12.73;8.20;;;2.10;99.90;;;;;;5037371;28;20160;-61
2023/12/04 09:26:27;;;;;;;13.20;8.50;;;2.10;99.90;;;;;;5030214;28;20050;-61
2023/12/04 09:28:53;;;;;;;13.68;8.73;;;2.10;99.90;;;;;;5029053;28;20033;-61
2023/12/04 09:31:19;;;;;;;13.63;8.80;;;2.10;99.90;;;;;;5027472;28;20112;-60
2023/12/04 09:33:45;;;;;;;12.82;7.90;;;2.10;99.90;;;;;;5036363;28;20128;-61
2023/12/04 09:36:10;;;;;;;15.38;8.48;;;2.10;99.90;;;;;;5006854;28;20456;-60
2023/12/04 09:38:38;;;;;;;13.93;8.60;;;2.10;99.90;;;;;;5028132;28;20052;-61
2023/12/04 09:41:09;;;;;;;15.10;8.77;;;2.10;99.90;;;;;;5041293;28;20489;-60
2023/12/04 09:43:35;;;;;;;13.68;8.48;;;2.10;99.90;;;;;;5023142;28;20033;-61
2023/12/04 09:46:01;;;;;;;14.85;9.02;;;2.10;99.90;;;;;;5028876;28;20160;-61
2023/12/04 09:48:31;;;;;;;12.18;7.93;;;2.10;99.90;;;;;;5028308;28;20183;-61
2023/12/04 09:50:58;;;;;;;14.60;9.55;;;2.10;99.90;;;;;;5023027;28;20437;-61
2023/12/04 09:53:26;;;;;;;13.07;8.45;;;2.10;99.90;;;;;;5024656;28;20656;-61
2023/12/04 09:55:52;;;;;;;14.27;8.32;;;2.20;99.90;;;;;;5021364;28;20138;-60
2023/12/04 09:58:21;;;;;;;14.45;7.82;;;2.20;99.90;;;;;;5022548;28;20108;-61
2023/12/04 10:00:47;;;;;;;14.52;8.70;;;2.20;99.90;;;;;;5026541;28;20048;-60
2023/12/04 10:03:14;;;;;;;13.80;8.00;;;2.20;99.90;;;;;;5020492;28;20102;-61
2023/12/04 10:05:45;;;;;;;12.98;7.32;;;2.20;99.90;;;;;;5010551;28;20098;-61
2023/12/04 10:08:11;;;;;;;13.60;8.00;;;2.20;99.90;;;;;;5021576;28;20610;-61
2023/12/04 10:10:37;;;;;;;13.52;8.68;;;2.20;99.90;;;;;;5000551;28;20045;-61
2023/12/04 10:13:03;;;;;;;14.23;8.25;;;2.20;99.90;;;;;;5018460;28;20557;-61
2023/12/04 10:15:28;;;;;;;13.93;8.43;;;2.20;99.90;;;;;;5022630;28;20560;-60
2023/12/04 10:17:54;;;;;;;11.68;7.38;;;2.30;99.90;;;;;;5025438;28;20041;-61
2023/12/04 10:20:21;;;;;;;13.82;8.57;;;2.30;99.90;;;;;;5008724;28;20041;-59
2023/12/04 10:23:01;;;;;;;13.00;8.38;;;2.30;99.90;;;;;;5022637;28;20102;-61
2023/12/04 10:25:29;;;;;;;12.70;8.18;;;2.30;99.90;;;;;;5020947;28;20051;-61
2023/12/04 10:28:15;;;;;;;13.82;8.25;;;2.30;99.90;;;;;;5019281;28;20061;-60
2023/12/04 10:30:41;;;;;;;13.65;8.25;;;2.40;99.90;;;;;;5017915;28;20449;-60
2023/12/04 10:33:08;;;;;;;12.57;8.55;;;2.40;99.90;;;;;;5014768;28;20128;-60
2023/12/04 10:35:36;;;;;;;15.73;8.75;;;2.40;99.90;;;;;;5020001;28;20041;-61
2023/12/04 10:38:02;;;;;;;14.50;8.82;;;2.50;99.90;;;;;;5016412;28;20051;-59
2023/12/04 10:40:33;;;;;;;13.13;7.90;;;2.50;99.90;;;;;;5035836;28;20091;-59
2023/12/04 10:43:16;;;;;;;12.55;8.32;;;2.60;99.90;;;;;;5016016;28;20370;-60
2023/12/04 10:45:43;;;;;;;13.95;8.50;;;2.70;99.90;;;;;;5024800;28;20049;-60
2023/12/04 10:48:10;;;;;;;15.32;9.13;;;2.70;99.90;;;;;;5019497;28;20081;-60
2023/12/04 10:50:40;;;;;;;12.30;7.95;;;2.70;99.90;;;;;;5026792;28;20120;-60
2023/12/04 10:53:12;;;;;;;12.40;8.18;;;2.70;99.90;;;;;;5021115;28;20079;-60
2023/12/04 10:55:39;;;;;;;12.80;7.97;;;2.80;99.90;;;;;;5024132;28;20040;-60
2023/12/04 10:58:08;;;;;;;13.88;7.93;;;2.80;99.90;;;;;;5021733;28;20130;-60
2023/12/04 11:00:37;;;;;;;13.75;8.27;;;2.80;99.90;;;;;;5018958;28;20579;-61
2023/12/04 11:03:28;;;;;;;14.40;8.13;;;2.80;99.90;;;;;;5028331;28;21912;-60
2023/12/04 11:05:59;;;;;;;11.43;7.22;;;2.80;99.90;;;;;;4989124;28;20046;-60
2023/12/04 11:08:30;;;;;;;12.70;8.10;;;2.80;99.90;;;;;;5008707;28;20069;-60
2023/12/04 11:11:03;;;;;;;15.38;8.40;;;2.90;99.90;;;;;;5007338;28;20091;-60
2023/12/04 11:13:32;;;;;;;14.40;7.73;;;2.90;99.90;;;;;;5006456;28;20037;-61
2023/12/04 11:16:13;;;;;;;14.40;8.40;;;2.90;99.90;;;;;;5007819;28;20041;-60
2023/12/04 11:18:43;;;;;;;12.32;7.25;;;2.90;99.90;;;;;;5013445;28;20045;-60
2023/12/04 11:21:10;;;;;;;12.20;8.30;;;2.90;99.90;;;;;;4992126;28;20045;-59
2023/12/04 11:23:37;;;;;;;12.30;8.60;;;2.80;99.90;;;;;;5006875;28;20179;-60
2023/12/04 11:26:05;;;;;;;14.20;7.93;;;2.80;99.90;;;;;;5012066;28;20048;-60
2023/12/04 11:28:32;;;;;;;13.35;8.23;;;2.80;99.90;;;;;;5011781;28;20096;-60
2023/12/04 11:31:00;;;;;;;13.73;9.15;;;2.80;99.90;;;;;;5010474;28;20045;-60
2023/12/04 11:33:26;;;;;;;12.40;8.23;;;2.80;99.90;;;;;;5005791;28;20568;-60
2023/12/04 11:35:52;;;;;;;12.77;8.35;;;2.80;99.90;;;;;;5030472;28;20042;-60
2023/12/04 11:38:18;;;;;;;13.60;8.10;;;2.80;99.90;;;;;;5029978;28;20330;-60
2023/12/04 11:40:46;;;;;;;11.98;7.93;;;2.80;99.90;;;;;;5027653;28;20130;-59
2023/12/04 11:43:27;;;;;;;14.38;8.60;;;2.80;99.90;;;;;;5014471;28;20632;-61
2023/12/04 11:46:20;;;;;;;15.63;8.45;;;2.80;99.90;;;;;;5013054;28;20056;-60
2023/12/04 11:48:47;;;;;;;14.38;7.97;;;2.80;99.90;;;;;;5011795;28;20038;-59
2023/12/04 11:51:34;;;;;;;12.98;8.02;;;2.70;99.90;;;;;;5009531;28;20037;-58
2023/12/04 11:57:40;;;;;;;12.68;7.78;;;2.80;99.90;;;;;;5008625;28;20499;-60
2023/12/04 12:00:10;;;;;;;11.98;7.55;;;2.70;99.90;;;;;;5021961;28;20068;-59
2023/12/04 12:02:35;;;;;;;13.73;8.88;;;2.70;99.90;;;;;;5010831;28;20037;-59
2023/12/04 12:05:01;;;;;;;13.13;8.00;;;2.80;99.90;;;;;;5009727;28;20048;-60
2023/12/04 12:07:28;;;;;;;13.57;8.45;;;2.80;99.90;;;;;;4992989;28;20175;-60
2023/12/04 12:09:55;;;;;;;13.30;8.38;;;2.70;99.90;;;;;;5011505;28;20085;-60
2023/12/04 12:12:21;;;;;;;13.75;8.77;;;2.80;99.90;;;;;;5010642;28;20473;-60
2023/12/04 12:14:47;;;;;;;12.85;8.85;;;2.70;99.90;;;;;;5008557;28;20563;-60
2023/12/04 12:17:13;;;;;;;12.95;8.10;;;2.70;99.90;;;;;;5007056;28;20045;-59
2023/12/04 12:19:39;;;;;;;11.32;7.63;;;2.70;99.90;;;;;;5006296;28;20069;-60
2023/12/04 12:22:05;;;;;;;13.00;8.50;;;2.70;99.90;;;;;;5012946;28;20145;-60
2023/12/04 12:24:31;;;;;;;12.50;7.82;;;2.70;99.90;;;;;;4999087;28;20152;-60
2023/12/04 12:26:56;;;;;;;13.02;8.38;;;2.70;99.90;;;;;;5009035;28;20038;-58
2023/12/04 12:29:22;;;;;;;12.48;8.27;;;2.60;99.90;;;;;;5007174;28;20045;-61
2023/12/04 12:31:49;;;;;;;12.15;8.30;;;2.70;99.90;;;;;;5028768;28;20475;-60
2023/12/04 12:34:15;;;;;;;12.27;8.40;;;2.60;99.90;;;;;;4994349;28;20042;-61
2023/12/04 12:36:40;;;;;;;11.43;7.65;;;2.60;99.90;;;;;;5008940;28;20044;-59
2023/12/04 12:39:08;;;;;;;13.27;7.68;;;2.60;99.90;;;;;;5027538;28;20124;-60
2023/12/04 12:41:34;;;;;;;12.43;7.97;;;2.60;99.90;;;;;;5009036;28;20060;-59
2023/12/04 12:44:01;;;;;;;14.45;8.68;;;2.70;99.90;;;;;;5008523;28;20065;-60
2023/12/04 12:46:29;;;;;;;12.93;7.75;;;2.60;99.90;;;;;;5011823;28;20072;-60
2023/12/04 12:48:54;;;;;;;11.68;7.50;;;2.60;99.90;;;;;;5011957;28;20038;-60